createdAt,value
2022-11-17T00:00:12.863Z,39.76
2022-11-17T00:00:44.487Z,39.82
2022-11-17T00:01:16.139Z,39.91
2022-11-17T00:01:47.772Z,39.84
2022-11-17T00:02:19.550Z,39.86
2022-11-17T00:02:51.235Z,40.23
2022-11-17T00:03:23.012Z,40.16
2022-11-17T00:03:54.659Z,40.38
2022-11-17T00:04:26.389Z,39.99
2022-11-17T00:04:58.141Z,39.84
2022-11-17T00:05:29.907Z,39.83
2022-11-17T00:06:01.525Z,40.14
2022-11-17T00:06:33.169Z,40.21
2022-11-17T00:07:04.845Z,40.17
2022-11-17T00:07:36.507Z,39.95
2022-11-17T00:08:08.286Z,39.90
2022-11-17T00:08:39.938Z,39.88
2022-11-17T00:09:11.580Z,39.98
2022-11-17T00:09:43.426Z,39.82
2022-11-17T00:10:15.068Z,40.33
2022-11-17T00:10:46.811Z,39.94
2022-11-17T00:11:18.457Z,40.03
2022-11-17T00:11:50.095Z,40.22
2022-11-17T00:12:22.899Z,39.90
2022-11-17T00:12:54.812Z,39.80
2022-11-17T00:13:26.452Z,40.37
2022-11-17T00:13:58.094Z,40.02
2022-11-17T00:14:29.838Z,39.96
2022-11-17T00:15:01.583Z,40.10
2022-11-17T00:15:33.329Z,39.98
2022-11-17T00:16:04.966Z,40.02
2022-11-17T00:16:36.714Z,39.73
2022-11-17T00:17:08.352Z,40.18
2022-11-17T00:17:39.996Z,40.04
2022-11-17T00:18:11.743Z,39.99
2022-11-17T00:18:43.481Z,40.36
2022-11-17T00:19:15.123Z,39.87
2022-11-17T00:19:46.870Z,40.11
2022-11-17T00:20:18.715Z,40.25
2022-11-17T00:20:50.355Z,40.06
2022-11-17T00:21:22.098Z,39.88
2022-11-17T00:21:53.745Z,40.12
2022-11-17T00:22:25.384Z,39.96
2022-11-17T00:22:56.926Z,39.76
2022-11-17T00:23:28.562Z,40.31
2022-11-17T00:24:00.205Z,40.33
2022-11-17T00:24:31.846Z,40.40
2022-11-17T00:25:03.599Z,40.10
2022-11-17T00:25:35.537Z,39.86
2022-11-17T00:26:07.182Z,40.10
2022-11-17T00:26:38.822Z,40.01
2022-11-17T00:27:10.564Z,39.88
2022-11-17T00:27:42.207Z,39.92
2022-11-17T00:28:13.850Z,39.83
2022-11-17T00:28:45.491Z,39.99
2022-11-17T00:29:17.234Z,40.03
2022-11-17T00:29:48.979Z,40.06
2022-11-17T00:30:20.610Z,40.09
2022-11-17T00:30:52.466Z,40.23
2022-11-17T00:31:24.110Z,40.02
2022-11-17T00:31:55.853Z,40.01
2022-11-17T00:32:27.495Z,39.92
2022-11-17T00:32:59.134Z,39.73
2022-11-17T00:33:30.776Z,39.76
2022-11-17T00:34:02.521Z,40.39
2022-11-17T00:34:34.268Z,40.14
2022-11-17T00:35:05.816Z,40.08
2022-11-17T00:35:37.545Z,39.93
2022-11-17T00:36:09.084Z,39.80
2022-11-17T00:36:40.829Z,40.28
2022-11-17T00:37:12.469Z,39.96
2022-11-17T00:37:44.217Z,40.25
2022-11-17T00:38:15.857Z,39.93
2022-11-17T00:38:47.499Z,39.90
2022-11-17T00:39:19.241Z,40.17
2022-11-17T00:39:51.864Z,39.92
2022-11-17T00:40:25.800Z,40.18
2022-11-17T00:40:57.550Z,39.92
2022-11-17T00:41:29.280Z,39.87
2022-11-17T00:42:00.934Z,40.20
2022-11-17T00:42:32.571Z,39.89
2022-11-17T00:43:04.213Z,39.80
2022-11-17T00:43:36.132Z,39.73
2022-11-17T00:44:08.009Z,40.08
2022-11-17T00:44:39.754Z,40.08
2022-11-17T00:45:11.292Z,39.86
2022-11-17T00:45:42.937Z,40.26
2022-11-17T00:46:14.779Z,40.27
2022-11-17T00:50:28.321Z,40.41
2022-11-17T00:50:59.963Z,40.18
2022-11-17T00:51:31.714Z,40.38
2022-11-17T00:52:03.456Z,39.80
2022-11-17T00:52:35.194Z,40.00
2022-11-17T00:53:06.939Z,40.13
2022-11-17T00:53:38.580Z,40.29
2022-11-17T00:54:10.310Z,39.96
2022-11-17T00:54:42.067Z,40.31
2022-11-17T00:55:13.769Z,40.11
2022-11-17T00:55:45.503Z,39.86
2022-11-17T00:56:17.095Z,39.89
2022-11-17T00:56:48.837Z,40.05
2022-11-17T00:57:20.792Z,39.65
2022-11-17T00:57:52.429Z,40.40
2022-11-17T00:58:24.070Z,39.98
2022-11-17T00:58:55.714Z,40.03
2022-11-17T00:59:27.352Z,40.16
2022-11-17T00:59:58.998Z,40.05
2022-11-17T01:00:30.752Z,40.14
2022-11-17T01:01:02.516Z,40.06
2022-11-17T01:01:34.271Z,40.15
2022-11-17T01:02:06.071Z,40.21
2022-11-17T01:02:37.815Z,40.16
2022-11-17T01:03:09.448Z,40.32
2022-11-17T01:03:41.098Z,40.11
2022-11-17T01:04:12.845Z,40.03
2022-11-17T01:04:44.483Z,40.06
2022-11-17T01:05:16.126Z,39.97
2022-11-17T01:05:47.869Z,39.85
2022-11-17T01:06:19.509Z,39.95
2022-11-17T01:06:51.340Z,40.03
2022-11-17T01:07:23.235Z,40.09
2022-11-17T01:12:13.506Z,40.41
2022-11-17T01:12:45.147Z,39.97
2022-11-17T01:13:16.883Z,39.87
2022-11-17T01:13:48.533Z,39.83
2022-11-17T01:14:20.178Z,39.77
2022-11-17T01:14:51.918Z,39.94
2022-11-17T01:15:23.456Z,39.87
2022-11-17T01:15:55.099Z,39.95
2022-11-17T01:16:26.743Z,40.32
2022-11-17T01:16:58.383Z,40.04
2022-11-17T01:17:30.127Z,40.30
2022-11-17T01:18:01.767Z,39.86
2022-11-17T01:18:33.513Z,40.11
2022-11-17T01:19:05.243Z,39.82
2022-11-17T01:19:36.896Z,40.32
2022-11-17T01:20:08.545Z,40.09
2022-11-17T01:20:40.183Z,40.26
2022-11-17T01:21:11.821Z,40.19
2022-11-17T01:21:43.566Z,39.90
2022-11-17T01:22:15.106Z,39.95
2022-11-17T01:22:46.749Z,40.22
2022-11-17T01:27:12.373Z,40.46
2022-11-17T01:27:44.014Z,40.00
2022-11-17T01:28:15.551Z,39.87
2022-11-17T01:28:47.294Z,40.43
2022-11-17T01:29:18.937Z,39.83
2022-11-17T01:29:50.579Z,40.19
2022-11-17T01:30:22.219Z,40.24
2022-11-17T01:30:53.861Z,39.76
2022-11-17T01:31:25.610Z,40.07
2022-11-17T01:31:57.247Z,40.13
2022-11-17T01:32:28.887Z,40.01
2022-11-17T01:33:00.526Z,39.72
2022-11-17T01:37:26.460Z,40.19
2022-11-17T01:37:58.205Z,40.13
2022-11-17T01:38:29.949Z,40.06
2022-11-17T01:39:01.693Z,40.22
2022-11-17T01:39:33.231Z,39.85
2022-11-17T01:40:05.115Z,40.35
2022-11-17T01:40:36.719Z,40.07
2022-11-17T01:41:08.451Z,39.85
2022-11-17T01:41:40.104Z,39.78
2022-11-17T01:42:11.847Z,40.27
2022-11-17T01:42:43.489Z,40.06
2022-11-17T01:43:15.131Z,39.98
2022-11-17T01:43:46.867Z,40.40
2022-11-17T01:44:18.518Z,40.09
2022-11-17T01:44:50.465Z,40.03
2022-11-17T01:45:22.312Z,40.22
2022-11-17T01:45:53.954Z,39.82
2022-11-17T01:46:25.598Z,39.90
2022-11-17T01:47:00.863Z,40.10
2022-11-17T01:47:32.870Z,39.80
2022-11-17T01:48:04.517Z,40.03
2022-11-17T01:48:36.246Z,40.18
2022-11-17T01:49:07.896Z,39.85
2022-11-17T01:49:39.646Z,39.47
2022-11-17T01:50:11.489Z,40.49
2022-11-17T01:50:43.129Z,39.64
2022-11-17T01:51:14.771Z,40.33
2022-11-17T01:51:46.412Z,40.40
2022-11-17T01:52:18.148Z,40.13
2022-11-17T01:52:49.900Z,40.63
2022-11-17T01:53:21.541Z,39.86
2022-11-17T01:53:53.185Z,39.74
2022-11-17T01:54:24.827Z,40.44
2022-11-17T01:54:56.770Z,39.87
2022-11-17T01:55:28.825Z,40.36
2022-11-17T01:56:00.487Z,40.27
2022-11-17T01:56:32.108Z,40.15
2022-11-17T01:57:03.852Z,40.37
2022-11-17T01:57:35.493Z,39.90
2022-11-17T01:58:07.136Z,40.18
2022-11-17T01:58:38.776Z,40.14
2022-11-17T02:03:04.402Z,40.11
2022-11-17T02:03:36.290Z,39.91
2022-11-17T02:04:08.400Z,39.75
2022-11-17T02:04:40.139Z,40.01
2022-11-17T02:05:11.788Z,40.00
2022-11-17T02:05:43.528Z,39.94
2022-11-17T02:06:15.174Z,39.75
2022-11-17T02:06:46.814Z,39.82
2022-11-17T02:07:18.610Z,40.00
2022-11-17T02:07:50.199Z,40.24
2022-11-17T02:08:21.843Z,40.01
2022-11-17T02:08:53.582Z,39.78
2022-11-17T02:09:25.330Z,40.01
2022-11-17T02:09:57.071Z,40.24
2022-11-17T02:10:28.918Z,40.24
2022-11-17T02:11:00.652Z,40.32
2022-11-17T02:11:32.303Z,40.26
2022-11-17T02:12:03.944Z,40.00
2022-11-17T02:12:35.585Z,40.23
2022-11-17T02:13:07.226Z,40.40
2022-11-17T02:13:38.970Z,40.06
2022-11-17T02:14:10.715Z,40.00
2022-11-17T02:14:42.356Z,40.05
2022-11-17T02:15:14.101Z,39.82
2022-11-17T02:15:45.950Z,40.14
2022-11-17T02:16:17.586Z,40.35
2022-11-17T02:16:49.228Z,40.09
2022-11-17T02:17:21.074Z,40.08
2022-11-17T02:17:52.716Z,39.67
2022-11-17T02:18:24.359Z,39.80
2022-11-17T02:18:56.211Z,40.25
2022-11-17T02:19:27.845Z,39.91
2022-11-17T02:19:59.487Z,39.78
2022-11-17T02:20:31.233Z,39.96
2022-11-17T02:21:02.983Z,39.81
2022-11-17T02:21:34.617Z,39.92
2022-11-17T02:22:06.363Z,39.86
2022-11-17T02:22:38.001Z,40.38
2022-11-17T02:23:09.643Z,39.92
2022-11-17T02:23:41.287Z,39.85
2022-11-17T02:24:12.929Z,39.75
2022-11-17T02:24:44.671Z,40.02
2022-11-17T02:25:16.209Z,39.79
2022-11-17T02:25:47.954Z,39.97
2022-11-17T02:26:19.799Z,40.30
2022-11-17T02:26:51.437Z,40.10
2022-11-17T02:27:23.184Z,40.05
2022-11-17T02:27:54.825Z,39.99
2022-11-17T02:28:26.468Z,40.06
2022-11-17T02:28:58.109Z,40.26
2022-11-17T02:29:29.749Z,40.16
2022-11-17T02:30:01.596Z,40.38
2022-11-17T02:33:50.369Z,40.18
2022-11-17T02:34:22.102Z,39.92
2022-11-17T02:34:53.743Z,39.82
2022-11-17T02:35:25.383Z,40.23
2022-11-17T02:35:57.026Z,39.87
2022-11-17T02:36:28.670Z,39.80
2022-11-17T02:37:00.415Z,40.25
2022-11-17T02:37:32.156Z,40.01
2022-11-17T02:38:03.900Z,40.27
2022-11-17T02:38:35.545Z,39.99
2022-11-17T02:39:07.180Z,40.38
2022-11-17T02:39:38.925Z,40.22
2022-11-17T02:40:10.565Z,39.82
2022-11-17T02:40:42.208Z,40.29
2022-11-17T02:41:13.837Z,39.92
2022-11-17T02:41:45.699Z,40.34
2022-11-17T02:42:17.237Z,40.22
2022-11-17T02:42:48.876Z,40.08
2022-11-17T02:43:20.522Z,40.09
2022-11-17T02:43:52.263Z,40.23
2022-11-17T02:44:24.108Z,40.25
2022-11-17T02:44:55.739Z,40.05
2022-11-17T02:45:27.596Z,39.82
2022-11-17T02:45:59.134Z,40.21
2022-11-17T02:46:30.878Z,40.15
2022-11-17T02:47:02.726Z,40.15
2022-11-17T02:47:34.359Z,40.31
2022-11-17T02:48:06.008Z,39.92
2022-11-17T02:48:37.639Z,39.93
2022-11-17T02:49:09.393Z,39.70
2022-11-17T02:49:41.036Z,40.09
2022-11-17T02:50:12.675Z,40.07
2022-11-17T02:50:44.319Z,40.15
2022-11-17T02:51:16.165Z,39.87
2022-11-17T02:51:47.805Z,39.94
2022-11-17T02:52:19.541Z,40.08
2022-11-17T02:52:51.294Z,39.84
2022-11-17T02:53:22.934Z,39.78
2022-11-17T02:53:54.575Z,40.07
2022-11-17T02:54:26.322Z,40.36
2022-11-17T02:54:58.064Z,40.26
2022-11-17T02:55:29.711Z,40.23
2022-11-17T02:56:01.346Z,40.35
2022-11-17T02:56:33.091Z,40.00
2022-11-17T02:57:04.734Z,40.25
2022-11-17T02:57:36.476Z,40.39
2022-11-17T02:58:08.119Z,40.21
2022-11-17T02:58:39.865Z,40.01
2022-11-17T02:59:11.504Z,40.10
2022-11-17T02:59:43.147Z,39.87
2022-11-17T03:00:14.788Z,40.06
2022-11-17T03:00:46.429Z,40.34
2022-11-17T03:04:47.474Z,39.89
2022-11-17T03:05:19.118Z,39.72
2022-11-17T03:05:50.862Z,40.36
2022-11-17T03:06:22.508Z,40.13
2022-11-17T03:06:54.167Z,40.18
2022-11-17T03:07:25.940Z,39.84
2022-11-17T03:07:57.840Z,39.97
2022-11-17T03:08:32.942Z,40.01
2022-11-17T03:09:05.013Z,40.36
2022-11-17T03:09:36.757Z,39.70
2022-11-17T03:10:08.395Z,40.20
2022-11-17T03:10:40.039Z,39.74
2022-11-17T03:14:52.480Z,40.05
2022-11-17T03:15:24.098Z,40.12
2022-11-17T03:15:55.838Z,40.31
2022-11-17T03:20:41.434Z,39.85
2022-11-17T03:21:13.073Z,39.82
2022-11-17T03:21:44.714Z,39.93
2022-11-17T03:22:16.458Z,40.74
2022-11-17T03:22:48.101Z,40.23
2022-11-17T03:23:19.743Z,40.23
2022-11-17T03:23:51.385Z,40.15
2022-11-17T03:24:23.225Z,40.33
2022-11-17T03:24:54.869Z,39.96
2022-11-17T03:25:26.512Z,39.84
2022-11-17T03:25:58.257Z,39.88
2022-11-17T03:26:29.793Z,40.18
2022-11-17T03:27:01.436Z,39.81
2022-11-17T03:27:33.078Z,40.39
2022-11-17T03:28:04.821Z,40.27
2022-11-17T03:28:36.461Z,40.15
2022-11-17T03:29:08.208Z,40.40
2022-11-17T03:29:39.848Z,40.09
2022-11-17T03:30:11.490Z,40.08
2022-11-17T03:30:43.234Z,39.87
2022-11-17T03:31:14.863Z,40.13
2022-11-17T03:31:46.617Z,40.05
2022-11-17T03:32:18.260Z,40.22
2022-11-17T03:32:50.005Z,40.25
2022-11-17T03:33:21.646Z,40.32
2022-11-17T03:33:53.290Z,40.24
2022-11-17T03:34:25.030Z,39.87
2022-11-17T03:34:56.877Z,39.70
2022-11-17T03:35:28.522Z,40.30
2022-11-17T03:36:00.262Z,39.74
2022-11-17T03:36:31.904Z,39.91
2022-11-17T03:37:03.547Z,40.31
2022-11-17T03:37:35.294Z,40.04
2022-11-17T03:38:06.933Z,39.81
2022-11-17T03:38:38.562Z,40.18
2022-11-17T03:39:10.318Z,40.17
2022-11-17T03:39:42.162Z,40.10
2022-11-17T03:40:13.999Z,40.29
2022-11-17T03:40:45.651Z,40.36
2022-11-17T03:41:17.294Z,39.76
2022-11-17T03:41:48.934Z,39.90
2022-11-17T03:46:35.856Z,40.02
2022-11-17T03:47:07.805Z,39.91
2022-11-17T03:51:19.505Z,40.37
2022-11-17T03:51:51.248Z,40.21
2022-11-17T03:52:22.883Z,39.77
2022-11-17T03:52:54.635Z,40.14
2022-11-17T03:53:26.278Z,40.61
2022-11-17T03:53:57.920Z,39.80
2022-11-17T03:54:29.556Z,40.13
2022-11-17T03:55:01.404Z,39.82
2022-11-17T03:55:33.044Z,40.40
2022-11-17T03:56:04.688Z,40.31
2022-11-17T03:56:36.539Z,40.13
2022-11-17T03:57:08.177Z,40.03
2022-11-17T03:57:40.021Z,40.41
2022-11-17T03:58:11.765Z,39.80
2022-11-17T03:58:43.400Z,39.95
2022-11-17T03:59:15.152Z,40.34
2022-11-17T03:59:46.794Z,40.08
2022-11-17T04:00:18.536Z,39.91
2022-11-17T04:00:50.179Z,40.20
2022-11-17T04:01:21.897Z,40.34
2022-11-17T04:01:53.584Z,40.04
2022-11-17T04:02:25.300Z,40.09
2022-11-17T04:02:57.049Z,39.84
2022-11-17T04:07:09.504Z,40.28
2022-11-17T04:07:41.319Z,40.25
2022-11-17T04:08:12.953Z,40.32
2022-11-17T04:12:25.671Z,40.12
2022-11-17T04:12:57.418Z,40.37
2022-11-17T04:13:29.060Z,40.42
2022-11-17T04:14:00.805Z,39.97
2022-11-17T04:14:32.343Z,39.93
2022-11-17T04:15:04.089Z,40.37
2022-11-17T04:15:35.830Z,40.20
2022-11-17T04:16:07.472Z,40.39
2022-11-17T04:16:39.216Z,40.03
2022-11-17T04:17:10.847Z,40.36
2022-11-17T04:17:42.500Z,40.52
2022-11-17T04:18:14.146Z,40.14
2022-11-17T04:18:45.885Z,40.40
2022-11-17T04:19:17.423Z,39.88
2022-11-17T04:19:49.065Z,39.74
2022-11-17T04:20:20.709Z,40.00
2022-11-17T04:20:52.454Z,40.29
2022-11-17T04:21:24.299Z,39.95
2022-11-17T04:21:55.926Z,40.06
2022-11-17T04:22:27.682Z,40.44
2022-11-17T04:22:59.323Z,40.25
2022-11-17T04:23:30.964Z,40.15
2022-11-17T04:24:02.606Z,40.31
2022-11-17T04:24:34.249Z,39.86
2022-11-17T04:25:05.993Z,40.07
2022-11-17T04:25:37.737Z,39.92
2022-11-17T04:26:09.384Z,39.83
2022-11-17T04:26:41.110Z,40.20
2022-11-17T04:27:12.765Z,40.37
2022-11-17T04:27:44.404Z,39.97
2022-11-17T04:28:16.045Z,40.26
2022-11-17T04:28:47.687Z,40.06
2022-11-17T04:33:00.603Z,40.29
2022-11-17T04:33:32.510Z,40.30
2022-11-17T04:34:04.411Z,40.30
2022-11-17T04:38:17.545Z,40.35
2022-11-17T04:38:49.082Z,40.24
2022-11-17T04:39:20.824Z,39.97
2022-11-17T04:39:52.364Z,40.12
2022-11-17T04:40:24.111Z,40.12
2022-11-17T04:40:55.645Z,40.17
2022-11-17T04:41:27.289Z,40.23
2022-11-17T04:41:59.740Z,40.00
2022-11-17T04:42:31.493Z,39.87
2022-11-17T04:43:03.134Z,40.18
2022-11-17T04:43:35.119Z,40.16
2022-11-17T04:44:06.928Z,40.34
2022-11-17T04:44:38.774Z,39.86
2022-11-17T04:45:10.417Z,40.04
2022-11-17T04:45:42.058Z,40.11
2022-11-17T04:46:13.905Z,39.86
2022-11-17T04:46:45.546Z,40.21
2022-11-17T04:47:17.291Z,40.05
2022-11-17T04:47:49.032Z,40.49
2022-11-17T04:48:20.677Z,39.94
2022-11-17T04:48:52.318Z,39.85
2022-11-17T04:49:23.961Z,40.20
2022-11-17T04:49:55.702Z,40.22
2022-11-17T04:50:27.345Z,40.36
2022-11-17T04:50:58.985Z,40.05
2022-11-17T04:51:30.626Z,40.28
2022-11-17T04:52:02.267Z,40.12
2022-11-17T04:52:34.012Z,39.97
2022-11-17T04:53:05.654Z,39.90
2022-11-17T04:53:37.780Z,40.08
2022-11-17T04:54:09.644Z,40.30
2022-11-17T04:59:06.510Z,39.88
2022-11-17T04:59:38.048Z,40.07
2022-11-17T05:04:01.523Z,40.15
2022-11-17T05:04:33.172Z,40.42
2022-11-17T05:05:04.808Z,40.06
2022-11-17T05:08:51.725Z,40.06
2022-11-17T05:09:23.466Z,40.09
2022-11-17T05:09:55.212Z,40.06
2022-11-17T05:10:26.852Z,40.38
2022-11-17T05:10:58.609Z,39.91
2022-11-17T05:11:30.349Z,40.24
2022-11-17T05:12:01.987Z,39.97
2022-11-17T05:12:33.625Z,40.22
2022-11-17T05:13:05.266Z,40.04
2022-11-17T05:13:37.380Z,40.03
2022-11-17T05:14:09.368Z,40.38
2022-11-17T05:14:41.009Z,40.25
2022-11-17T05:15:12.652Z,40.00
2022-11-17T05:15:44.292Z,40.25
2022-11-17T05:16:15.924Z,40.55
2022-11-17T05:16:47.575Z,40.00
2022-11-17T05:17:19.208Z,40.06
2022-11-17T05:17:50.960Z,40.27
2022-11-17T05:18:22.602Z,40.49
2022-11-17T05:18:54.243Z,40.39
2022-11-17T05:19:26.089Z,40.13
2022-11-17T05:19:58.447Z,40.43
2022-11-17T05:20:30.090Z,40.20
2022-11-17T05:25:06.163Z,40.29
2022-11-17T05:25:37.905Z,40.36
2022-11-17T05:30:14.896Z,40.31
2022-11-17T05:30:46.535Z,40.03
2022-11-17T05:35:23.935Z,40.54
2022-11-17T05:35:55.783Z,40.08
2022-11-17T05:40:32.879Z,40.29
2022-11-17T05:41:04.520Z,39.79
2022-11-17T05:45:42.123Z,40.00
2022-11-17T05:46:13.767Z,39.98
2022-11-17T05:50:50.961Z,40.12
2022-11-17T05:51:22.600Z,40.28
2022-11-17T05:51:54.249Z,40.02
2022-11-17T05:52:25.884Z,40.19
2022-11-17T05:52:57.527Z,40.16
2022-11-17T05:53:29.167Z,40.18
2022-11-17T05:54:00.810Z,40.11
2022-11-17T05:54:32.554Z,40.02
2022-11-17T05:55:05.020Z,40.12
2022-11-17T05:55:36.860Z,40.49
2022-11-17T05:56:08.605Z,39.96
2022-11-17T05:56:40.348Z,40.27
2022-11-17T05:57:11.893Z,40.05
2022-11-17T05:57:43.529Z,40.11
2022-11-17T05:58:15.797Z,40.29
2022-11-17T05:58:47.529Z,40.19
2022-11-17T05:59:22.161Z,40.25
2022-11-17T05:59:57.988Z,40.20
2022-11-17T06:00:29.620Z,40.02
2022-11-17T06:01:01.568Z,40.33
2022-11-17T06:01:33.414Z,40.33
2022-11-17T06:02:05.059Z,40.06
2022-11-17T06:02:36.703Z,40.06
2022-11-17T06:03:08.340Z,39.86
2022-11-17T06:03:40.279Z,40.03
2022-11-17T06:04:11.980Z,40.35
2022-11-17T06:04:43.770Z,39.89
2022-11-17T06:05:19.955Z,40.18
2022-11-17T06:05:51.975Z,39.98
2022-11-17T06:06:23.718Z,40.06
2022-11-17T06:06:55.584Z,40.19
2022-11-17T06:07:27.380Z,40.03
2022-11-17T06:07:59.258Z,40.11
2022-11-17T06:08:31.000Z,39.83
2022-11-17T06:09:02.748Z,40.25
2022-11-17T06:09:34.386Z,39.97
2022-11-17T06:10:05.926Z,40.21
2022-11-17T06:10:37.619Z,40.46
2022-11-17T06:11:09.210Z,40.54
2022-11-17T06:11:41.058Z,40.21
2022-11-17T06:12:12.699Z,40.60
2022-11-17T06:16:49.586Z,39.98
2022-11-17T06:17:22.885Z,40.35
2022-11-17T06:17:54.815Z,40.14
2022-11-17T06:18:26.455Z,40.27
2022-11-17T06:18:58.097Z,39.74
2022-11-17T06:19:29.839Z,40.04
2022-11-17T06:20:01.592Z,40.36
2022-11-17T06:20:33.225Z,40.33
2022-11-17T06:21:04.867Z,40.30
2022-11-17T06:22:04.434Z,40.15
2022-11-17T06:22:28.324Z,40.46
2022-11-17T06:23:00.071Z,40.20
2022-11-17T06:23:31.988Z,40.32
2022-11-17T06:24:03.759Z,40.25
2022-11-17T06:24:35.401Z,40.17
2022-11-17T06:25:07.145Z,40.28
2022-11-17T06:25:38.889Z,39.98
2022-11-17T06:26:10.530Z,39.89
2022-11-17T06:26:42.171Z,40.13
2022-11-17T06:27:14.019Z,39.96
2022-11-17T06:27:45.871Z,40.25
2022-11-17T06:28:17.813Z,40.28
2022-11-17T06:28:49.455Z,39.87
2022-11-17T06:29:21.199Z,40.14
2022-11-17T06:29:52.841Z,40.38
2022-11-17T06:30:24.584Z,40.33
2022-11-17T06:30:56.330Z,39.87
2022-11-17T06:31:27.967Z,40.30
2022-11-17T06:31:59.610Z,40.40
2022-11-17T06:32:31.354Z,40.22
2022-11-17T06:33:03.100Z,40.65
2022-11-17T06:33:35.117Z,39.86
2022-11-17T06:34:07.100Z,40.53
2022-11-17T06:34:38.727Z,40.24
2022-11-17T06:35:10.588Z,40.02
2022-11-17T06:35:42.333Z,39.94
2022-11-17T06:36:14.063Z,40.20
2022-11-17T06:36:45.716Z,40.30
2022-11-17T06:37:17.368Z,40.09
2022-11-17T06:37:49.099Z,40.26
2022-11-17T06:38:20.741Z,39.98
2022-11-17T06:38:52.587Z,40.47
2022-11-17T06:39:24.331Z,40.01
2022-11-17T06:39:55.966Z,40.15
2022-11-17T06:40:27.616Z,39.96
2022-11-17T06:40:59.253Z,40.54
2022-11-17T06:41:30.900Z,40.22
2022-11-17T06:42:02.535Z,40.08
2022-11-17T06:42:34.285Z,39.93
2022-11-17T06:43:05.925Z,40.06
2022-11-17T06:43:37.973Z,40.20
2022-11-17T06:44:09.823Z,40.24
2022-11-17T06:44:41.578Z,40.39
2022-11-17T06:45:13.312Z,40.47
2022-11-17T06:45:44.953Z,40.13
2022-11-17T06:46:16.595Z,39.94
2022-11-17T06:46:49.292Z,40.12
2022-11-17T06:47:22.854Z,40.37
2022-11-17T06:47:54.508Z,40.33
2022-11-17T06:48:26.540Z,40.42
2022-11-17T06:48:58.170Z,40.37
2022-11-17T06:49:29.924Z,40.03
2022-11-17T06:50:01.566Z,40.04
2022-11-17T06:50:33.212Z,40.01
2022-11-17T06:51:04.859Z,40.40
2022-11-17T06:51:38.931Z,40.18
2022-11-17T06:52:13.958Z,40.23
2022-11-17T06:52:45.618Z,40.66
2022-11-17T06:53:17.257Z,40.36
2022-11-17T06:53:49.001Z,40.45
2022-11-17T06:54:20.750Z,40.43
2022-11-17T06:54:52.491Z,40.24
2022-11-17T06:55:24.233Z,40.41
2022-11-17T06:55:55.875Z,40.00
2022-11-17T06:56:27.620Z,40.61
2022-11-17T06:56:59.363Z,40.51
2022-11-17T06:57:33.201Z,40.00
2022-11-17T06:58:05.718Z,40.59
2022-11-17T06:58:37.695Z,40.67
2022-11-17T06:59:09.724Z,40.65
2022-11-17T06:59:41.468Z,41.06
2022-11-17T07:00:13.107Z,40.45
2022-11-17T07:00:44.830Z,40.96
2022-11-17T07:01:16.627Z,41.42
2022-11-17T07:01:48.335Z,40.50
2022-11-17T07:02:19.976Z,41.58
2022-11-17T07:02:51.617Z,41.41
2022-11-17T07:03:23.371Z,40.99
2022-11-17T07:03:55.002Z,41.36
2022-11-17T07:04:26.646Z,41.61
2022-11-17T07:04:58.388Z,41.74
2022-11-17T07:05:30.036Z,41.36
2022-11-17T07:06:01.777Z,42.05
2022-11-17T07:06:33.412Z,41.59
2022-11-17T07:07:05.117Z,41.69
2022-11-17T07:07:36.979Z,41.23
2022-11-17T07:08:08.714Z,41.87
2022-11-17T07:08:40.496Z,42.09
2022-11-17T07:09:12.138Z,41.81
2022-11-17T07:13:37.763Z,41.95
2022-11-17T07:14:09.406Z,41.82
2022-11-17T07:18:46.701Z,41.59
2022-11-17T07:19:18.345Z,41.96
2022-11-17T07:19:49.982Z,41.99
2022-11-17T07:20:21.624Z,42.35
2022-11-17T07:20:53.266Z,41.81
2022-11-17T07:21:24.901Z,41.75
2022-11-17T07:21:56.757Z,41.96
2022-11-17T07:22:28.399Z,41.50
2022-11-17T07:23:00.157Z,41.50
2022-11-17T07:23:31.983Z,42.03
2022-11-17T07:24:03.832Z,42.34
2022-11-17T07:24:35.475Z,41.75
2022-11-17T07:28:47.714Z,41.80
2022-11-17T07:29:19.537Z,41.96
2022-11-17T07:29:51.177Z,41.73
2022-11-17T07:30:22.813Z,42.16
2022-11-17T07:30:54.763Z,42.12
2022-11-17T07:31:26.939Z,41.65
2022-11-17T07:31:59.957Z,42.11
2022-11-17T07:32:32.975Z,41.67
2022-11-17T07:33:05.319Z,41.89
2022-11-17T07:33:37.283Z,41.51
2022-11-17T07:34:09.114Z,42.04
2022-11-17T07:34:41.480Z,41.87
2022-11-17T07:35:13.835Z,42.00
2022-11-17T07:35:46.090Z,42.25
2022-11-17T07:36:18.758Z,41.74
2022-11-17T07:36:50.398Z,41.82
2022-11-17T07:37:22.148Z,41.52
2022-11-17T07:37:53.877Z,42.03
2022-11-17T07:38:25.831Z,41.65
2022-11-17T07:38:57.577Z,41.41
2022-11-17T07:39:29.320Z,41.74
2022-11-17T07:40:01.063Z,41.57
2022-11-17T07:40:32.810Z,41.54
2022-11-17T07:41:04.451Z,41.75
2022-11-17T07:41:36.294Z,41.59
2022-11-17T07:42:08.038Z,41.80
2022-11-17T07:42:39.818Z,41.59
2022-11-17T07:43:11.530Z,41.32
2022-11-17T07:43:43.372Z,41.80
2022-11-17T07:44:15.021Z,41.83
2022-11-17T07:44:46.692Z,41.87
2022-11-17T07:45:18.500Z,41.69
2022-11-17T07:45:50.245Z,41.29
2022-11-17T07:46:21.879Z,41.48
2022-11-17T07:46:53.632Z,41.74
2022-11-17T07:47:25.275Z,41.51
2022-11-17T07:47:56.913Z,41.21
2022-11-17T07:48:28.970Z,41.73
2022-11-17T07:49:00.918Z,41.24
2022-11-17T07:49:32.558Z,41.26
2022-11-17T07:50:04.302Z,41.42
2022-11-17T07:50:36.043Z,41.46
2022-11-17T07:51:07.688Z,41.46
2022-11-17T07:51:39.327Z,41.76
2022-11-17T07:52:10.969Z,41.53
2022-11-17T07:52:42.915Z,41.59
2022-11-17T07:53:14.777Z,41.54
2022-11-17T07:53:46.607Z,41.69
2022-11-17T07:54:18.761Z,41.76
2022-11-17T07:54:51.130Z,41.62
2022-11-17T07:55:23.283Z,41.52
2022-11-17T07:55:55.146Z,41.58
2022-11-17T07:56:27.376Z,41.13
2022-11-17T07:56:59.120Z,41.30
2022-11-17T07:57:30.765Z,42.00
2022-11-17T07:58:02.919Z,41.56
2022-11-17T07:58:34.874Z,41.60
2022-11-17T07:59:06.926Z,41.59
2022-11-17T07:59:38.761Z,41.29
2022-11-17T08:00:11.432Z,41.58
2022-11-17T08:00:43.610Z,41.19
2022-11-17T08:01:16.128Z,41.29
2022-11-17T08:01:49.325Z,41.70
2022-11-17T08:02:22.404Z,41.55
2022-11-17T08:02:56.174Z,41.95
2022-11-17T08:03:28.585Z,41.45
2022-11-17T08:04:00.620Z,41.61
2022-11-17T08:04:32.545Z,41.45
2022-11-17T08:05:04.393Z,41.15
2022-11-17T08:05:41.529Z,41.50
2022-11-17T08:06:15.353Z,41.30
2022-11-17T08:10:27.776Z,41.35
2022-11-17T08:11:00.752Z,41.25
2022-11-17T08:11:34.240Z,41.45
2022-11-17T08:12:06.068Z,41.73
2022-11-17T08:12:37.716Z,41.30
2022-11-17T08:13:09.463Z,41.72
2022-11-17T08:13:41.108Z,41.48
2022-11-17T08:14:13.875Z,41.25
2022-11-17T08:14:46.686Z,41.37
2022-11-17T08:15:18.481Z,41.30
2022-11-17T08:15:50.226Z,41.37
2022-11-17T08:16:21.975Z,41.69
2022-11-17T08:21:23.843Z,41.88
2022-11-17T08:21:55.485Z,41.73
2022-11-17T08:26:19.780Z,41.53
2022-11-17T08:26:51.524Z,41.45
2022-11-17T08:27:23.268Z,41.25
2022-11-17T08:31:10.899Z,41.74
2022-11-17T08:31:42.750Z,41.58
2022-11-17T08:32:14.492Z,41.62
2022-11-17T08:32:46.135Z,41.57
2022-11-17T08:33:17.782Z,41.61
2022-11-17T08:33:49.729Z,41.78
2022-11-17T08:34:21.470Z,41.44
2022-11-17T08:34:53.213Z,41.66
2022-11-17T08:35:24.851Z,41.86
2022-11-17T08:35:56.701Z,41.14
2022-11-17T08:36:28.553Z,41.51
2022-11-17T08:37:00.206Z,41.63
2022-11-17T08:37:31.935Z,41.85
2022-11-17T08:38:03.571Z,41.55
2022-11-17T08:38:35.488Z,41.70
2022-11-17T08:39:07.366Z,41.47
2022-11-17T08:39:39.008Z,41.74
2022-11-17T08:40:10.746Z,41.27
2022-11-17T08:40:42.499Z,41.50
2022-11-17T08:41:14.266Z,41.84
2022-11-17T08:41:45.984Z,41.60
2022-11-17T08:42:17.727Z,41.41
2022-11-17T08:42:49.473Z,41.51
2022-11-17T08:43:21.214Z,41.74
2022-11-17T08:43:52.858Z,41.65
2022-11-17T08:44:24.498Z,41.68
2022-11-17T08:44:56.246Z,41.49
2022-11-17T08:45:27.886Z,41.91
2022-11-17T08:45:59.528Z,41.53
2022-11-17T08:46:31.375Z,41.54
2022-11-17T08:47:03.390Z,41.33
2022-11-17T08:47:35.065Z,41.43
2022-11-17T08:48:06.807Z,41.73
2022-11-17T08:52:44.623Z,41.69
2022-11-17T08:53:16.372Z,41.59
2022-11-17T08:53:48.112Z,41.42
2022-11-17T08:54:19.953Z,41.28
2022-11-17T08:54:51.595Z,41.30
2022-11-17T08:55:23.387Z,41.38
2022-11-17T08:55:55.207Z,41.75
2022-11-17T08:56:26.933Z,41.39
2022-11-17T08:56:58.712Z,41.14
2022-11-17T08:57:30.678Z,40.85
2022-11-17T08:58:02.466Z,41.59